Flight Track Log - Related Links

Times and Time Zones

All times are in EDT time to prevent confusion due to time zone crossing. See the N4200B flight status page for this flight to view local times or setup timezone preferences in your user account.

Time Position Orientation Groundspeed Altitude Reporting Facility
EDT Latitude Longitude Course Direction KTS MPH feet Rate Location/Type
Fri 02:23:15 PM 27.6550 -80.4344 170° South 110 127 400  Level Miami Center
Fri 02:24:15 PM 27.6733 -80.4539 317° Northwest 94 108 900 450 Climbing Miami Center
Fri 02:25:15 PM 27.6936 -80.4756 317° Northwest 94 108 1,300 450 Climbing Miami Center
Fri 02:26:15 PM 27.7142 -80.4950 320° Northwest 94 108 1,800 450 Climbing Miami Center
Fri 02:27:15 PM 27.7303 -80.5142 314° West 94 108 2,200 400 Climbing Miami Center
Fri 02:28:00 PM 27.4975 -80.3726 170° South  Level Estimated
Fri 02:28:15 PM 27.7506 -80.5314 323° Northwest 94 108 2,600  Level Miami Center
Fri 02:29:15 PM 27.7711 -80.5531 317° Northwest 89 102 2,900 200 Climbing Miami Center
Fri 02:30:15 PM 27.7581 -80.5714 231° Southwest 72 83 3,000 50 Climbing Miami Center
Fri 02:31:15 PM 27.7367 -80.5872 213° Southwest 78 90 3,000  Level Miami Center
Fri 02:32:15 PM 27.7217 -80.6008 219° Southwest 87 100 3,000  Level Miami Center
Fri 02:33:15 PM 27.7006 -80.6164 213° Southwest 82 94 3,000  Level Miami Center
Fri 02:34:15 PM 27.6792 -80.6322 213° Southwest 82 94 3,000  Level Miami Center
Fri 02:35:15 PM 27.6581 -80.6456 209° Southwest 82 94 3,000  Level Miami Center
Fri 02:37:15 PM 27.6197 -80.6722 212° Southwest 82 94 3,000  Level Miami Center
Fri 02:38:15 PM 27.5925 -80.6761 187° South 87 100 3,000  Level Miami Center
Fri 02:39:15 PM 27.5653 -80.6753 178° South 92 106 3,000  Level Miami Center
Fri 02:40:15 PM 27.5406 -80.6697 169° South 87 100 3,000  Level Miami Center
Fri 02:41:15 PM 27.5175 -80.6667 173° South 87 100 3,000  Level Miami Center
Fri 02:42:15 PM 27.5036 -80.6428 123° Southeast 87 100 3,000  Level Miami Center
Fri 02:43:15 PM 27.5003 -80.6075 96° East 98 113 3,000  Level Miami Center
Fri 02:44:15 PM 27.5011 -80.5772 88° East 103 119 3,000 -100 Level Miami Center
Fri 02:45:15 PM 27.4997 -80.5444 93° East 103 119 2,800 -400 Descending Miami Center
Fri 02:46:15 PM 27.4986 -80.5139 92° East 103 119 2,200 -550 Descending Miami Center
Fri 02:47:15 PM 27.4992 -80.4833 89° East 103 119 1,700 -550 Descending Miami Center
Fri 02:48:15 PM 27.4981 -80.4483 92° East 103 119 1,100 -550 Descending Miami Center
Fri 02:49:15 PM 27.4967 -80.4178 93° East 103 119 600 -250 Descending Miami Center
Fri 02:50:15 PM 27.4953 -80.3897 93° East 103 119 600 350 Level Miami Center
Fri 02:51:15 PM 27.4744 -80.3892 179° South 79 91 1,300 1,700 Climbing Miami Center
Fri 02:52:15 PM 27.4494 -80.3858 173° South 85 98 4,000 650 Climbing Miami Center
Fri 02:53:15 PM 27.4264 -80.3875 184° South 85 98 2,600 -500 Descending Miami Center
Fri 02:54:15 PM 27.4056 -80.3869 179° South 85 98 3,000 200 Climbing Miami Center
Fri 02:55:15 PM 27.3875 -80.3653 133° Southeast 85 98 3,000 -50 Level Miami Center
Fri 02:56:15 PM 27.3756 -80.3369 115° Southeast 101 116 2,900 -50 Descending Miami Center
Fri 02:57:15 PM 27.3636 -80.3061 114° Southeast 101 116 2,900 50 Level Miami Center
Fri 02:58:15 PM 27.3519 -80.2800 117° Southeast 95 109 3,000 50 Climbing Miami Center
Fri 02:59:15 PM 27.3378 -80.2539 121° Southeast 95 109 3,000 -50 Level Miami Center
Fri 03:00:15 PM 27.3258 -80.2278 117° Southeast 95 109 2,900 -50 Descending Miami Center
Fri 03:01:15 PM 27.3078 -80.2017 128° Southeast 95 109 2,900 50 Level Miami Center
Fri 03:02:15 PM 27.2853 -80.1847 146° Southeast 85 98 3,000 50 Climbing Miami Center
Fri 03:03:15 PM 27.2667 -80.1653 137° Southeast 85 98 3,000 -50 Level Miami Center
Fri 03:04:15 PM 27.2464 -80.1483 143° Southeast 85 98 2,900 -100 Descending Miami Center
Fri 03:06:00 PM 27.2751 -80.1739 322° Northwest  Level Estimated
Fri 03:13:00 PM 27.3901 -80.2765 322° Northwest  Level Estimated
Fri 03:14:00 PM 27.4065 -80.2912 322° Northwest  Level Estimated
Fri 03:15:00 PM 27.4229 -80.3059 322° Northwest  Level Estimated
Fri 03:16:00 PM 27.4393 -80.3205 322° Northwest  Level Estimated
Fri 03:17:00 PM 27.4557 -80.3352 322° Northwest  Level Estimated
Fri 03:18:00 PM 27.4721 -80.3499 322° Northwest  Level Estimated
Fri 03:19:00 PM 27.4885 -80.3646 322° Northwest  Level Estimated

Login

Don't have an account? Register now (free) for customized features, flight alerts, and more!